Time;durP1;ratioP1;P1;durP2;ratioP2;P2;SDS_P1;SDS_P2;PMS_P1;PMS_P2;Temp;Humidity;BMP_temperature;BMP_pressure;BME280_temperature;BME280_humidity;BME280_pressure;Samples;Min_cycle;Max_cycle;Signal;HPM_P1;HPM_P2
2021/03/20 00:01:52;;;;;;;15.20;9.93;;;-1.40;99.90;;;;;;6226946;28;20053;-81
2021/03/20 00:04:53;;;;;;;11.03;8.27;;;-1.30;99.90;;;;;;6227305;28;20530;-81
2021/03/20 00:07:56;;;;;;;19.07;10.33;;;-1.30;99.90;;;;;;6226105;28;20069;-81
2021/03/20 00:10:57;;;;;;;15.37;8.93;;;-1.30;99.90;;;;;;6225989;28;20534;-80
2021/03/20 00:13:59;;;;;;;13.60;10.17;;;-1.40;99.90;;;;;;6227311;28;20176;-81
2021/03/20 00:17:01;;;;;;;13.57;9.10;;;-1.40;99.90;;;;;;6226838;28;20125;-79
2021/03/20 00:20:04;;;;;;;15.47;8.93;;;-1.40;99.90;;;;;;6235807;28;20050;-83
2021/03/20 00:23:07;;;;;;;15.17;9.47;;;-1.50;99.90;;;;;;6228509;28;20146;-83
2021/03/20 00:26:09;;;;;;;18.53;8.23;;;-1.50;99.90;;;;;;6228243;28;20110;-82
2021/03/20 00:29:10;;;;;;;9.03;7.77;;;-1.50;99.90;;;;;;6228247;28;20046;-82
2021/03/20 00:32:11;;;;;;;14.53;7.67;;;-1.40;99.90;;;;;;6228338;28;20137;-81
2021/03/20 00:35:14;;;;;;;11.53;8.20;;;-1.40;99.90;;;;;;6232536;28;20066;-81
2021/03/20 00:38:17;;;;;;;11.30;7.53;;;-1.40;99.90;;;;;;6235607;28;20099;-81
2021/03/20 00:41:18;;;;;;;16.33;9.63;;;-1.30;99.90;;;;;;6235280;28;20554;-82
2021/03/20 00:44:20;;;;;;;13.17;8.63;;;-1.20;99.90;;;;;;6235992;28;20073;-82
2021/03/20 00:47:21;;;;;;;12.97;8.63;;;-1.20;99.90;;;;;;6234938;28;20046;-82
2021/03/20 00:50:25;;;;;;;11.73;9.17;;;-1.20;99.90;;;;;;6235197;28;20077;-80
2021/03/20 00:53:27;;;;;;;11.73;8.87;;;-1.20;99.90;;;;;;6235476;28;20129;-80
2021/03/20 00:56:29;;;;;;;10.20;8.87;;;-1.20;99.90;;;;;;6232654;28;20061;-79
2021/03/20 00:59:30;;;;;;;12.70;8.53;;;-1.20;99.90;;;;;;6232069;28;20066;-79
2021/03/20 01:02:31;;;;;;;12.77;9.70;;;-1.10;99.90;;;;;;6232473;28;20069;-81
2021/03/20 01:05:33;;;;;;;9.50;8.57;;;-1.00;99.90;;;;;;6232549;28;20096;-78
2021/03/20 01:08:35;;;;;;;13.27;8.83;;;-0.90;99.90;;;;;;6231832;28;20053;-79
2021/03/20 01:11:37;;;;;;;12.97;8.37;;;-0.80;99.90;;;;;;6230584;28;20053;-81
2021/03/20 01:14:38;;;;;;;13.20;8.60;;;-0.80;99.90;;;;;;6229382;28;20077;-81
2021/03/20 01:17:40;;;;;;;12.07;8.83;;;-0.70;99.90;;;;;;6230229;28;20072;-81
2021/03/20 01:20:42;;;;;;;11.60;8.27;;;-0.70;99.90;;;;;;6232030;28;20140;-81
2021/03/20 01:23:44;;;;;;;12.57;9.60;;;-0.60;99.90;;;;;;6230278;28;20130;-80
2021/03/20 01:26:46;;;;;;;12.57;8.27;;;-0.60;99.90;;;;;;6230127;28;20046;-81
2021/03/20 01:29:47;;;;;;;11.53;8.50;;;-0.60;99.90;;;;;;6229582;28;20050;-80
2021/03/20 01:32:49;;;;;;;8.53;7.10;;;-0.60;99.90;;;;;;6230520;28;20088;-80
2021/03/20 01:35:50;;;;;;;12.30;9.97;;;-0.70;99.90;;;;;;6230258;28;20088;-79
2021/03/20 01:38:52;;;;;;;10.13;7.87;;;-0.80;99.90;;;;;;6229611;28;20046;-81
2021/03/20 01:41:54;;;;;;;11.27;9.53;;;-0.80;99.90;;;;;;6230147;28;20045;-81
2021/03/20 01:45:09;;;;;;;14.17;9.07;;;-0.90;99.90;;;;;;6229699;28;20065;-81
2021/03/20 01:48:18;;;;;;;9.90;8.17;;;-1.00;99.90;;;;;;6229123;28;20054;-81
2021/03/20 01:51:20;;;;;;;13.60;10.37;;;-1.00;99.90;;;;;;6229232;28;20080;-81
2021/03/20 01:54:23;;;;;;;13.87;10.33;;;-1.00;99.90;;;;;;6231953;28;20069;-80
2021/03/20 01:57:29;;;;;;;16.57;10.53;;;-0.90;99.90;;;;;;6230941;28;20076;-79
2021/03/20 02:00:33;;;;;;;16.47;8.53;;;-0.80;99.90;;;;;;6230940;28;20050;-81
2021/03/20 02:03:36;;;;;;;12.90;10.63;;;-0.80;99.90;;;;;;6229683;28;20050;-77
2021/03/20 02:06:37;;;;;;;12.97;9.80;;;-0.70;99.90;;;;;;6229600;28;20577;-80
2021/03/20 02:09:40;;;;;;;15.53;9.80;;;-0.60;99.90;;;;;;6230399;28;20042;-81
2021/03/20 02:12:44;;;;;;;14.40;10.23;;;-0.50;99.90;;;;;;6231706;28;20050;-80
2021/03/20 02:15:48;;;;;;;12.90;9.23;;;-0.40;99.90;;;;;;6230790;28;20046;-77
2021/03/20 02:19:00;;;;;;;15.77;11.47;;;-0.30;99.90;;;;;;6227950;28;20061;-80
2021/03/20 02:22:05;;;;;;;16.47;11.93;;;-0.10;99.90;;;;;;6229220;28;20096;-80
2021/03/20 02:25:34;;;;;;;13.93;12.07;;;0.00;99.90;;;;;;6230008;28;20137;-81
2021/03/20 02:29:07;;;;;;;15.70;11.00;;;0.10;99.90;;;;;;6230538;28;20070;-79
2021/03/20 02:32:28;;;;;;;14.07;12.00;;;0.10;99.90;;;;;;6230132;28;20129;-81
2021/03/20 02:35:34;;;;;;;15.70;11.33;;;0.20;99.90;;;;;;6228713;28;20069;-78
2021/03/20 02:38:43;;;;;;;13.40;11.10;;;0.20;99.90;;;;;;6231064;28;20132;-81
2021/03/20 02:41:50;;;;;;;13.80;10.30;;;0.20;99.90;;;;;;6230370;28;20054;-82
2021/03/20 02:44:58;;;;;;;17.50;11.70;;;0.20;99.90;;;;;;6229755;28;20064;-81
2021/03/20 02:48:11;;;;;;;12.37;8.97;;;0.20;99.90;;;;;;6229943;28;20532;-81
2021/03/20 02:51:20;;;;;;;11.67;9.20;;;0.10;99.90;;;;;;6229215;28;20073;-80
2021/03/20 02:54:27;;;;;;;13.63;8.90;;;0.10;99.90;;;;;;6229569;28;20123;-79
2021/03/20 02:57:32;;;;;;;14.83;10.57;;;0.10;99.90;;;;;;6227313;28;20189;-79
2021/03/20 03:00:36;;;;;;;12.07;9.93;;;0.10;99.90;;;;;;6229219;28;20073;-79
2021/03/20 03:03:41;;;;;;;12.67;8.77;;;0.20;99.90;;;;;;6229038;28;20046;-79
2021/03/20 03:06:49;;;;;;;11.07;9.20;;;0.20;99.90;;;;;;6231131;28;20109;-80
2021/03/20 03:09:55;;;;;;;14.13;10.38;;;0.20;99.90;;;;;;6230418;28;20092;-81
2021/03/20 03:13:02;;;;;;;13.20;9.60;;;0.20;99.90;;;;;;6230105;28;20727;-82
2021/03/20 03:16:08;;;;;;;12.10;8.77;;;0.20;99.90;;;;;;6228750;28;20056;-79
2021/03/20 03:19:17;;;;;;;13.90;10.23;;;0.30;99.90;;;;;;6228661;28;20550;-79
2021/03/20 03:22:24;;;;;;;13.50;10.23;;;0.30;99.90;;;;;;6228132;28;20125;-79
2021/03/20 03:25:27;;;;;;;15.60;12.60;;;0.30;99.90;;;;;;6230928;28;20056;-81
2021/03/20 03:28:30;;;;;;;16.17;11.67;;;0.40;99.90;;;;;;6229257;28;20054;-79
2021/03/20 03:31:35;;;;;;;12.23;9.03;;;0.40;99.90;;;;;;6244907;23;20092;-79
2021/03/20 03:34:46;;;;;;;16.43;10.70;;;0.40;99.90;;;;;;6235433;28;20050;-79
2021/03/20 03:37:55;;;;;;;15.53;9.83;;;0.50;99.90;;;;;;6224341;28;20129;-79
2021/03/20 03:41:02;;;;;;;15.93;12.67;;;0.50;99.90;;;;;;6225101;28;20054;-79
2021/03/20 03:44:04;;;;;;;11.63;9.10;;;0.50;99.90;;;;;;6224005;28;20499;-79
2021/03/20 03:47:06;;;;;;;12.00;10.37;;;0.60;99.90;;;;;;6240142;28;20072;-79
2021/03/20 03:50:14;;;;;;;22.50;10.53;;;0.60;99.90;;;;;;6247875;28;20514;-79
2021/03/20 03:53:19;;;;;;;13.85;10.43;;;0.60;99.90;;;;;;6247794;28;20119;-79
2021/03/20 03:56:37;;;;;;;12.70;10.67;;;0.60;99.90;;;;;;6247982;28;20183;-79
2021/03/20 03:59:50;;;;;;;16.42;10.45;;;0.60;99.90;;;;;;6247457;28;20076;-79
2021/03/20 04:03:23;;;;;;;10.07;8.40;;;0.50;99.90;;;;;;6247106;28;20083;-79
2021/03/20 04:06:39;;;;;;;14.43;10.50;;;0.50;99.90;;;;;;6243105;28;20037;-79
2021/03/20 04:09:52;;;;;;;13.23;10.60;;;0.50;99.90;;;;;;6250983;28;20045;-79
2021/03/20 04:12:59;;;;;;;15.83;11.07;;;0.50;99.90;;;;;;6252428;28;20132;-79
2021/03/20 04:16:06;;;;;;;12.32;9.95;;;0.50;99.90;;;;;;6252183;28;20573;-79
2021/03/20 04:19:14;;;;;;;13.47;10.17;;;0.40;99.90;;;;;;6251915;28;20041;-79
2021/03/20 04:22:26;;;;;;;13.27;11.00;;;0.40;99.90;;;;;;6252131;28;20085;-79
2021/03/20 04:25:35;;;;;;;13.30;8.80;;;0.30;99.90;;;;;;6252179;28;20149;-79
2021/03/20 04:28:47;;;;;;;13.67;9.00;;;0.20;99.90;;;;;;6252115;28;20081;-79
2021/03/20 04:31:53;;;;;;;12.10;9.43;;;0.30;99.90;;;;;;6251828;28;20124;-80
2021/03/20 04:34:59;;;;;;;14.43;9.57;;;0.20;99.90;;;;;;6251615;28;20514;-79
2021/03/20 04:38:02;;;;;;;11.93;9.47;;;0.20;99.90;;;;;;6251158;28;20526;-78
2021/03/20 04:41:06;;;;;;;14.40;10.40;;;0.10;99.90;;;;;;6252430;28;20140;-79
2021/03/20 04:44:09;;;;;;;13.67;11.10;;;0.00;99.90;;;;;;6251436;28;20033;-79
2021/03/20 04:47:15;;;;;;;15.63;10.63;;;-0.10;99.90;;;;;;6251728;28;20096;-79
2021/03/20 04:50:19;;;;;;;16.50;10.13;;;-0.10;99.90;;;;;;6251437;28;20410;-80
2021/03/20 04:53:21;;;;;;;14.27;10.33;;;-0.10;99.90;;;;;;6251987;28;20049;-79
2021/03/20 04:56:24;;;;;;;13.93;11.30;;;-0.10;99.90;;;;;;6251383;28;20088;-79
2021/03/20 04:59:39;;;;;;;18.90;12.00;;;-0.10;99.90;;;;;;6251191;28;20136;-80
2021/03/20 05:02:44;;;;;;;14.60;11.67;;;-0.10;99.90;;;;;;6250499;28;20049;-80
2021/03/20 05:05:48;;;;;;;15.37;11.07;;;-0.10;99.90;;;;;;6251549;28;20045;-80
2021/03/20 05:08:56;;;;;;;13.13;10.57;;;-0.10;99.90;;;;;;6251680;28;20136;-80
2021/03/20 05:12:00;;;;;;;14.48;11.20;;;-0.10;99.90;;;;;;6251184;28;20132;-80
2021/03/20 05:15:18;;;;;;;17.87;14.00;;;-0.10;99.90;;;;;;6251141;28;20569;-79
2021/03/20 05:18:20;;;;;;;17.33;12.13;;;-0.10;99.90;;;;;;6249988;28;20073;-79
2021/03/20 05:21:23;;;;;;;15.23;11.23;;;-0.10;99.90;;;;;;6249289;28;20135;-80
2021/03/20 05:24:28;;;;;;;15.33;10.93;;;-0.10;99.90;;;;;;6253139;28;20060;-80
2021/03/20 05:27:32;;;;;;;16.50;10.17;;;-0.30;99.90;;;;;;6254191;28;20075;-81
2021/03/20 05:30:33;;;;;;;16.23;11.33;;;-0.50;99.90;;;;;;6252584;28;20065;-80
2021/03/20 05:33:38;;;;;;;14.47;10.90;;;-0.50;99.90;;;;;;6250991;28;20701;-80
2021/03/20 05:36:39;;;;;;;17.77;12.60;;;-0.60;99.90;;;;;;6251560;28;20140;-80
2021/03/20 05:39:41;;;;;;;16.57;13.27;;;-0.70;99.90;;;;;;6251766;28;20489;-80
2021/03/20 05:43:29;;;;;;;13.80;10.13;;;-0.80;99.90;;;;;;6251567;28;20077;-80
2021/03/20 05:46:38;;;;;;;17.20;13.00;;;-0.90;99.90;;;;;;6223787;28;20098;-80
2021/03/20 05:49:51;;;;;;;14.73;11.27;;;-0.90;99.90;;;;;;6224348;28;20606;-81
2021/03/20 05:53:06;;;;;;;18.10;11.93;;;-1.00;99.90;;;;;;6252355;28;20054;-81
2021/03/20 05:56:15;;;;;;;17.93;12.33;;;-1.00;99.90;;;;;;6250751;28;20092;-80
2021/03/20 05:59:28;;;;;;;16.63;11.80;;;-1.00;99.90;;;;;;6250137;28;20124;-81
2021/03/20 06:02:50;;;;;;;14.93;9.97;;;-1.00;99.90;;;;;;6250312;28;20109;-80
2021/03/20 06:05:54;;;;;;;15.87;11.50;;;-0.90;99.90;;;;;;6250432;28;20124;-81
2021/03/20 06:09:04;;;;;;;16.57;11.90;;;-0.80;99.90;;;;;;6249762;28;20059;-81
2021/03/20 06:12:21;;;;;;;19.17;14.30;;;-0.80;99.90;;;;;;6249831;28;20131;-81
2021/03/20 06:15:38;;;;;;;18.53;13.27;;;-0.70;99.90;;;;;;6250044;28;20137;-80
2021/03/20 06:19:19;;;;;;;16.47;12.63;;;-0.70;99.90;;;;;;6249572;28;20140;-80
2021/03/20 06:22:54;;;;;;;16.83;11.40;;;-0.50;99.90;;;;;;6246893;28;20056;-81
2021/03/20 06:26:09;;;;;;;17.60;12.07;;;-0.40;99.90;;;;;;6250890;28;20077;-81
2021/03/20 06:29:17;;;;;;;14.23;11.53;;;-0.30;99.90;;;;;;6251211;28;20515;-80
2021/03/20 06:32:24;;;;;;;18.93;11.63;;;-0.10;99.90;;;;;;6252094;28;20045;-80
2021/03/20 06:35:35;;;;;;;20.50;11.70;;;0.20;99.90;;;;;;6251967;28;20080;-80
2021/03/20 06:38:43;;;;;;;14.17;10.27;;;0.40;99.90;;;;;;6250075;28;20051;-81
2021/03/20 06:41:49;;;;;;;14.73;12.27;;;0.60;99.90;;;;;;6250956;28;20048;-81
2021/03/20 06:44:58;;;;;;;10.57;9.33;;;0.70;99.90;;;;;;6250938;28;20042;-81
2021/03/20 06:48:05;;;;;;;15.43;11.00;;;0.90;99.90;;;;;;6250674;28;20076;-80
2021/03/20 06:51:07;;;;;;;15.23;10.32;;;1.00;99.90;;;;;;6251900;28;20105;-80
2021/03/20 06:54:11;;;;;;;14.10;11.83;;;1.20;99.90;;;;;;6251653;28;20045;-80
2021/03/20 06:57:12;;;;;;;14.27;10.37;;;1.30;99.90;;;;;;6252831;28;20148;-79
2021/03/20 07:00:22;;;;;;;16.33;12.10;;;1.50;99.90;;;;;;6251297;28;20084;-80
2021/03/20 07:03:52;;;;;;;16.93;11.83;;;1.70;99.90;;;;;;6250295;28;20045;-80
2021/03/20 07:07:07;;;;;;;13.10;8.37;;;1.80;99.90;;;;;;6248189;28;20121;-81
2021/03/20 07:10:23;;;;;;;11.10;8.93;;;1.90;99.90;;;;;;6251675;28;20503;-80
2021/03/20 07:13:26;;;;;;;14.20;9.50;;;1.90;99.80;;;;;;6253355;28;20054;-80
2021/03/20 07:16:31;;;;;;;12.03;9.07;;;1.80;99.90;;;;;;6251712;28;20053;-81
2021/03/20 07:19:32;;;;;;;10.53;9.03;;;1.80;99.80;;;;;;6251108;28;20079;-80
2021/03/20 07:22:37;;;;;;;11.67;8.97;;;1.80;99.40;;;;;;6249664;28;20076;-80
2021/03/20 07:25:43;;;;;;;9.33;8.03;;;1.70;99.00;;;;;;6249107;28;20037;-79
2021/03/20 07:28:49;;;;;;;10.20;7.47;;;1.70;98.50;;;;;;6248874;28;20104;-80
2021/03/20 07:31:59;;;;;;;8.30;7.47;;;1.90;98.90;;;;;;6248626;28;20541;-80
2021/03/20 07:35:24;;;;;;;9.10;7.10;;;2.10;98.60;;;;;;6249535;28;20110;-80
2021/03/20 07:38:28;;;;;;;11.50;7.23;;;2.30;97.90;;;;;;6248752;28;20068;-80
2021/03/20 07:41:44;;;;;;;6.50;5.83;;;2.40;95.60;;;;;;6249650;28;20129;-80
2021/03/20 07:44:51;;;;;;;8.17;5.70;;;2.40;94.40;;;;;;6253175;28;20045;-79
2021/03/20 07:48:03;;;;;;;10.27;5.88;;;2.50;93.30;;;;;;6253326;28;20042;-80
2021/03/20 07:51:07;;;;;;;10.67;7.17;;;2.60;92.30;;;;;;6252378;28;20069;-79
2021/03/20 07:54:20;;;;;;;6.33;4.93;;;2.80;91.60;;;;;;6252481;28;20065;-80
2021/03/20 07:57:22;;;;;;;6.57;4.37;;;3.00;91.40;;;;;;6243635;28;20045;-80
2021/03/20 08:00:26;;;;;;;7.67;5.37;;;3.30;91.20;;;;;;6204472;28;20105;-80
2021/03/20 08:03:31;;;;;;;8.53;5.77;;;3.20;87.40;;;;;;6203358;28;20531;-80
2021/03/20 08:06:45;;;;;;;7.67;4.33;;;3.10;86.80;;;;;;6203435;28;20052;-80
2021/03/20 08:09:46;;;;;;;8.63;4.60;;;3.20;86.60;;;;;;6203665;28;20073;-79
2021/03/20 08:12:54;;;;;;;4.63;3.90;;;3.40;87.20;;;;;;6204381;28;20160;-79
2021/03/20 08:15:57;;;;;;;5.47;4.63;;;3.50;86.20;;;;;;6202956;28;20556;-79
2021/03/20 08:18:59;;;;;;;6.87;4.90;;;3.60;85.20;;;;;;6204155;28;20062;-80
2021/03/20 08:22:30;;;;;;;7.43;4.90;;;3.50;84.60;;;;;;6202954;28;20073;-80
2021/03/20 08:25:44;;;;;;;5.93;4.57;;;3.40;84.80;;;;;;6204014;28;20456;-79
2021/03/20 08:28:50;;;;;;;6.20;5.17;;;3.40;83.50;;;;;;6204362;28;20085;-79
2021/03/20 08:32:04;;;;;;;6.60;4.50;;;3.50;83.50;;;;;;6202717;28;20066;-80
2021/03/20 08:35:15;;;;;;;4.97;4.47;;;3.70;83.00;;;;;;6203866;28;20486;-79
2021/03/20 08:38:28;;;;;;;6.77;5.07;;;3.90;82.90;;;;;;6202897;28;20121;-80
2021/03/20 08:41:39;;;;;;;6.47;4.17;;;4.10;81.30;;;;;;6202681;28;20069;-79
2021/03/20 08:45:01;;;;;;;4.20;3.80;;;4.00;79.90;;;;;;6202858;28;20508;-80
2021/03/20 08:48:31;;;;;;;7.80;5.10;;;3.90;79.10;;;;;;6202062;28;20440;-79
2021/03/20 08:51:42;;;;;;;5.53;4.20;;;4.00;79.00;;;;;;6202576;28;20112;-79
2021/03/20 08:55:21;;;;;;;4.90;4.03;;;4.00;79.50;;;;;;6201685;28;20524;-80
2021/03/20 08:58:40;;;;;;;4.63;3.42;;;4.30;77.70;;;;;;6201787;28;20500;-79
2021/03/20 09:01:47;;;;;;;3.83;3.08;;;4.50;75.20;;;;;;6202771;28;20073;-80
2021/03/20 09:04:51;;;;;;;3.20;2.90;;;4.50;73.70;;;;;;6202738;28;20077;-79
2021/03/20 09:07:58;;;;;;;3.80;2.65;;;4.50;72.80;;;;;;6202087;28;20133;-79
2021/03/20 09:11:02;;;;;;;4.70;3.60;;;4.80;73.70;;;;;;6203764;28;20401;-78
2021/03/20 09:14:07;;;;;;;4.35;2.22;;;5.20;71.00;;;;;;6203882;28;20301;-78
2021/03/20 09:17:15;;;;;;;4.38;2.58;;;5.40;69.30;;;;;;6204049;28;20054;-78
2021/03/20 09:20:26;;;;;;;2.63;2.42;;;5.40;69.20;;;;;;6227801;28;20081;-79
2021/03/20 09:23:32;;;;;;;4.32;3.13;;;5.90;68.70;;;;;;6226331;28;20073;-79
2021/03/20 09:26:38;;;;;;;4.82;4.25;;;6.00;67.10;;;;;;6225689;28;20046;-79
2021/03/20 09:30:16;;;;;;;3.22;2.33;;;5.50;64.70;;;;;;6225028;28;20124;-79
2021/03/20 09:33:36;;;;;;;5.18;2.90;;;5.40;66.50;;;;;;6224631;28;20080;-79
2021/03/20 09:36:43;;;;;;;3.15;1.80;;;5.60;65.00;;;;;;6283363;23;20053;-78
2021/03/20 09:39:46;;;;;;;2.73;1.63;;;5.60;64.70;;;;;;6266426;28;20080;-80
2021/03/20 09:42:47;;;;;;;7.45;2.10;;;5.90;64.10;;;;;;6261747;28;20348;-79
2021/03/20 09:46:22;;;;;;;4.60;1.92;;;6.20;62.40;;;;;;6274974;28;20103;-79
2021/03/20 09:49:58;;;;;;;6.70;2.45;;;6.20;63.30;;;;;;6280289;28;20053;-78
2021/03/20 09:53:35;;;;;;;4.10;2.28;;;6.40;62.60;;;;;;6285070;28;20048;-78
2021/03/20 09:56:37;;;;;;;2.33;2.13;;;6.50;58.70;;;;;;6280337;28;20068;-80
2021/03/20 09:59:47;;;;;;;5.28;1.98;;;6.10;59.90;;;;;;6284334;28;20532;-78
2021/03/20 10:02:54;;;;;;;4.28;1.98;;;5.40;59.10;;;;;;6278665;28;20052;-78
2021/03/20 10:06:19;;;;;;;2.30;2.10;;;5.10;60.60;;;;;;6277739;28;20048;-80
2021/03/20 10:09:24;;;;;;;5.53;1.70;;;5.20;63.50;;;;;;6273872;28;20048;-77
2021/03/20 10:12:31;;;;;;;2.75;2.10;;;5.60;63.80;;;;;;6277423;28;20060;-78
2021/03/20 10:15:35;;;;;;;2.67;2.05;;;6.40;60.30;;;;;;6281590;28;20337;-78
2021/03/20 10:18:55;;;;;;;1.90;1.45;;;7.20;58.70;;;;;;6274397;28;20053;-77
2021/03/20 10:22:02;;;;;;;4.03;1.27;;;7.60;57.80;;;;;;6275352;28;20072;-77
2021/03/20 10:25:05;;;;;;;4.25;2.17;;;8.00;53.10;;;;;;6274215;28;20044;-77
2021/03/20 10:28:07;;;;;;;2.90;1.20;;;8.20;53.80;;;;;;6273203;28;20148;-77
2021/03/20 10:31:11;;;;;;;4.40;1.50;;;8.40;52.30;;;;;;6278278;28;20498;-78
2021/03/20 10:34:15;;;;;;;3.80;1.85;;;8.30;50.50;;;;;;6282923;28;20104;-78
2021/03/20 10:37:17;;;;;;;2.70;2.17;;;8.10;51.80;;;;;;6274761;28;20049;-77
2021/03/20 10:40:25;;;;;;;3.80;1.60;;;8.00;49.80;;;;;;6274492;28;20132;-78
2021/03/20 10:43:27;;;;;;;1.93;1.40;;;8.20;49.40;;;;;;6276033;28;20079;-77
2021/03/20 10:46:32;;;;;;;3.22;1.58;;;8.20;49.50;;;;;;6275528;28;20386;-78
2021/03/20 10:49:39;;;;;;;1.40;1.30;;;7.90;48.00;;;;;;6279624;28;20056;-79
2021/03/20 10:52:43;;;;;;;2.20;1.73;;;7.80;47.80;;;;;;6280430;28;20124;-79
2021/03/20 10:55:48;;;;;;;1.52;1.13;;;7.70;48.40;;;;;;6277998;28;20044;-77
2021/03/20 10:58:49;;;;;;;2.85;1.42;;;7.60;46.70;;;;;;6275721;28;20048;-77
2021/03/20 11:01:51;;;;;;;1.60;1.50;;;7.50;46.30;;;;;;6278285;28;20507;-78
2021/03/20 11:04:54;;;;;;;3.58;1.90;;;7.40;47.10;;;;;;6280083;28;20084;-78
2021/03/20 11:07:58;;;;;;;2.75;1.65;;;7.60;48.60;;;;;;6279368;28;20041;-78
2021/03/20 11:11:10;;;;;;;2.35;2.15;;;7.70;46.30;;;;;;6278884;28;20577;-78
2021/03/20 11:14:13;;;;;;;2.50;1.30;;;7.60;45.50;;;;;;6292671;28;20041;-76
2021/03/20 11:17:20;;;;;;;2.55;1.42;;;7.50;46.00;;;;;;6284878;28;20124;-78
2021/03/20 11:20:28;;;;;;;2.03;1.48;;;7.90;46.10;;;;;;6274391;28;20148;-77
2021/03/20 11:23:34;;;;;;;1.95;1.40;;;8.10;45.80;;;;;;6276605;28;20669;-78
2021/03/20 11:26:43;;;;;;;1.65;1.20;;;8.50;45.40;;;;;;6279768;28;20436;-78
2021/03/20 11:29:46;;;;;;;2.90;1.77;;;8.30;45.40;;;;;;6276682;28;20041;-77
2021/03/20 11:32:49;;;;;;;2.63;1.33;;;8.20;48.50;;;;;;6279223;28;20492;-78
2021/03/20 11:35:54;;;;;;;2.47;1.40;;;8.70;44.70;;;;;;6279812;28;20044;-79
2021/03/20 11:38:56;;;;;;;4.53;2.05;;;8.90;46.50;;;;;;6286069;28;20052;-79
2021/03/20 11:42:02;;;;;;;1.90;1.45;;;8.50;43.40;;;;;;6288394;28;20148;-77
2021/03/20 11:45:08;;;;;;;2.13;1.48;;;8.10;41.90;;;;;;6278515;28;20076;-78
2021/03/20 11:48:16;;;;;;;39.13;17.42;;;7.90;43.40;;;;;;6276799;28;20541;-78
2021/03/20 11:51:25;;;;;;;45.22;28.13;;;8.00;45.10;;;;;;6278108;28;20075;-78
2021/03/20 11:54:33;;;;;;;10.73;6.53;;;8.60;47.50;;;;;;6283685;28;20601;-77
2021/03/20 11:57:38;;;;;;;3.70;2.55;;;9.00;43.70;;;;;;6286374;28;20064;-77
2021/03/20 12:00:44;;;;;;;3.40;1.45;;;9.10;44.10;;;;;;6287622;28;20048;-77
2021/03/20 12:03:45;;;;;;;3.35;2.25;;;9.30;40.20;;;;;;6291298;28;20047;-77
2021/03/20 12:06:47;;;;;;;2.00;1.50;;;9.40;39.30;;;;;;6281635;28;20123;-78
2021/03/20 12:09:49;;;;;;;3.67;1.83;;;9.40;39.40;;;;;;6276985;28;20053;-79
2021/03/20 12:12:53;;;;;;;1.55;1.42;;;8.80;37.80;;;;;;6283620;28;20041;-78
2021/03/20 12:15:55;;;;;;;7.15;3.35;;;8.10;38.40;;;;;;6303133;28;20041;-78
2021/03/20 12:19:19;;;;;;;3.15;2.67;;;7.50;38.90;;;;;;6282147;28;20077;-78
2021/03/20 12:22:38;;;;;;;3.15;1.90;;;7.30;42.10;;;;;;6276804;28;20051;-79
2021/03/20 12:25:52;;;;;;;2.25;2.05;;;7.40;40.90;;;;;;6281850;28;20044;-78
2021/03/20 12:29:08;;;;;;;2.85;2.03;;;7.50;40.20;;;;;;6282430;28;20521;-78
2021/03/20 12:32:18;;;;;;;2.30;2.00;;;7.60;41.40;;;;;;6282203;28;20053;-78
2021/03/20 12:35:36;;;;;;;2.05;1.83;;;8.10;40.00;;;;;;6278320;28;20080;-78
2021/03/20 12:38:37;;;;;;;2.58;1.90;;;8.60;39.40;;;;;;6277500;28;20049;-78
2021/03/20 12:41:40;;;;;;;1.95;1.45;;;9.20;38.80;;;;;;6282293;28;20079;-79
2021/03/20 12:44:44;;;;;;;4.95;2.22;;;9.10;38.90;;;;;;6279805;28;20502;-78
2021/03/20 12:47:45;;;;;;;4.47;2.05;;;8.90;41.30;;;;;;6278136;28;20576;-78
2021/03/20 12:50:47;;;;;;;3.83;2.75;;;9.00;38.80;;;;;;6278805;28;20053;-78
2021/03/20 12:53:48;;;;;;;0.98;0.98;;;8.80;36.80;;;;;;6280140;28;20040;-78
2021/03/20 12:56:51;;;;;;;3.28;2.72;;;8.30;39.80;;;;;;6278361;28;20183;-78
2021/03/20 12:59:52;;;;;;;2.05;1.52;;;8.10;39.50;;;;;;6279241;28;20049;-78
2021/03/20 13:02:53;;;;;;;3.67;1.52;;;8.50;43.00;;;;;;6282361;28;20083;-78
2021/03/20 13:05:55;;;;;;;2.83;2.28;;;8.80;39.00;;;;;;6281472;28;20506;-78
2021/03/20 13:08:56;;;;;;;2.08;1.55;;;9.00;40.70;;;;;;6279732;28;20099;-78
2021/03/20 13:11:59;;;;;;;2.47;1.92;;;9.00;40.30;;;;;;6280115;28;20108;-78
2021/03/20 13:15:00;;;;;;;2.33;1.77;;;8.80;37.50;;;;;;6301918;28;20114;-78
2021/03/20 13:18:01;;;;;;;4.78;2.28;;;8.60;40.00;;;;;;6307608;28;20092;-77
2021/03/20 13:21:03;;;;;;;2.40;1.85;;;8.70;37.60;;;;;;6278450;28;20064;-79
2021/03/20 13:24:05;;;;;;;4.13;1.95;;;8.60;36.50;;;;;;6278451;28;20175;-79
2021/03/20 13:27:09;;;;;;;2.33;1.63;;;8.30;36.70;;;;;;6281223;28;20072;-78
2021/03/20 13:30:11;;;;;;;3.63;2.03;;;8.40;38.30;;;;;;6279045;28;20083;-78
2021/03/20 13:33:14;;;;;;;4.43;3.10;;;8.70;38.60;;;;;;6279652;28;20135;-78
2021/03/20 13:36:16;;;;;;;3.55;3.25;;;9.10;37.90;;;;;;6283835;28;20080;-78
2021/03/20 13:39:17;;;;;;;1.67;1.33;;;9.40;37.40;;;;;;6282156;28;20041;-78
2021/03/20 13:42:21;;;;;;;2.45;1.67;;;9.60;37.80;;;;;;6277333;28;20556;-78
2021/03/20 13:45:25;;;;;;;4.18;2.08;;;9.90;36.80;;;;;;6279520;28;20075;-78
2021/03/20 13:48:26;;;;;;;2.97;1.90;;;10.20;36.60;;;;;;6282361;28;20087;-78
2021/03/20 13:51:27;;;;;;;3.13;1.77;;;10.40;36.30;;;;;;6280883;28;20083;-78
2021/03/20 13:54:29;;;;;;;2.75;2.17;;;10.50;35.90;;;;;;6282780;28;20049;-78
2021/03/20 13:57:31;;;;;;;2.88;1.45;;;10.40;37.20;;;;;;6275180;28;20049;-78
2021/03/20 14:00:33;;;;;;;3.40;1.73;;;10.50;38.10;;;;;;6280699;28;20052;-78
2021/03/20 14:03:35;;;;;;;3.78;2.20;;;10.60;37.60;;;;;;6278290;28;20290;-78
2021/03/20 14:06:36;;;;;;;2.40;2.13;;;10.70;37.20;;;;;;6279513;28;20068;-78
2021/03/20 14:09:37;;;;;;;2.22;2.03;;;10.70;36.90;;;;;;6278620;28;20045;-79
2021/03/20 14:12:41;;;;;;;2.30;2.03;;;10.70;35.00;;;;;;6277953;28;20053;-78
2021/03/20 14:15:42;;;;;;;4.63;1.73;;;10.40;36.80;;;;;;6275907;28;20068;-77
2021/03/20 14:18:44;;;;;;;4.25;2.45;;;10.40;38.20;;;;;;6276267;28;20053;-78
2021/03/20 14:21:45;;;;;;;3.97;2.10;;;10.60;38.20;;;;;;6264540;28;20053;-81
2021/03/20 14:24:46;;;;;;;3.25;2.75;;;10.60;38.50;;;;;;6254624;28;20041;-79
2021/03/20 14:27:49;;;;;;;2.03;1.70;;;10.60;38.30;;;;;;6253621;28;20129;-78
2021/03/20 14:30:50;;;;;;;3.58;2.20;;;10.70;37.80;;;;;;6274682;28;20124;-78
2021/03/20 14:33:53;;;;;;;5.55;3.78;;;10.50;36.40;;;;;;6279325;28;20041;-78
2021/03/20 14:36:54;;;;;;;4.75;2.30;;;10.20;36.60;;;;;;6277890;28;20049;-78
2021/03/20 14:39:56;;;;;;;2.40;1.70;;;9.80;35.80;;;;;;6285257;28;20099;-78
2021/03/20 14:42:58;;;;;;;2.60;2.03;;;9.40;37.10;;;;;;6296244;28;20033;-79
2021/03/20 14:46:00;;;;;;;2.53;2.03;;;9.10;37.70;;;;;;6294665;28;20041;-79
2021/03/20 14:49:01;;;;;;;1.75;1.60;;;8.90;38.00;;;;;;6295962;28;20071;-78
2021/03/20 14:52:03;;;;;;;2.47;1.70;;;8.80;38.40;;;;;;6293932;28;20044;-78
2021/03/20 14:55:06;;;;;;;6.72;2.70;;;8.70;37.80;;;;;;6280740;28;20079;-78
2021/03/20 14:58:09;;;;;;;3.65;1.90;;;8.50;38.60;;;;;;6278284;28;20461;-79
2021/03/20 15:01:10;;;;;;;2.65;1.70;;;8.50;37.90;;;;;;6278290;28;20551;-79
2021/03/20 15:04:12;;;;;;;2.55;1.80;;;8.70;38.10;;;;;;6285157;28;20104;-77
2021/03/20 15:07:13;;;;;;;3.10;1.75;;;8.80;36.30;;;;;;6301996;28;20064;-77
2021/03/20 15:10:17;;;;;;;2.35;1.55;;;8.90;35.80;;;;;;6301918;28;20032;-75
2021/03/20 15:13:20;;;;;;;1.75;1.13;;;8.80;34.50;;;;;;6311510;28;20025;-79
2021/03/20 15:16:22;;;;;;;3.47;2.13;;;8.60;35.50;;;;;;6328026;28;20044;-78
2021/03/20 15:19:24;;;;;;;2.85;1.67;;;8.60;36.10;;;;;;6327264;28;20040;-79
2021/03/20 15:22:25;;;;;;;2.17;1.02;;;8.50;32.90;;;;;;6296895;28;20486;-80
2021/03/20 15:25:27;;;;;;;2.00;1.42;;;8.40;34.10;;;;;;6278894;28;20064;-78
2021/03/20 15:28:29;;;;;;;2.45;1.40;;;8.50;34.70;;;;;;6278814;28;20140;-79
2021/03/20 15:31:35;;;;;;;1.48;0.93;;;8.60;34.40;;;;;;6279440;28;20045;-79
2021/03/20 15:34:37;;;;;;;3.90;2.08;;;8.70;34.60;;;;;;6279072;28;20048;-79
2021/03/20 15:37:38;;;;;;;2.38;1.75;;;8.70;33.80;;;;;;6277846;28;20048;-79
2021/03/20 15:40:42;;;;;;;3.63;2.38;;;8.70;34.80;;;;;;6279160;28;20081;-80
2021/03/20 15:43:45;;;;;;;3.28;2.05;;;8.80;35.20;;;;;;6278092;28;20044;-80
2021/03/20 15:46:46;;;;;;;3.40;1.75;;;8.80;34.70;;;;;;6278141;28;20099;-80
2021/03/20 15:49:47;;;;;;;4.10;1.30;;;8.90;34.60;;;;;;6278217;28;20068;-80
2021/03/20 15:52:49;;;;;;;1.98;1.60;;;8.70;33.20;;;;;;6278527;28;20045;-78
2021/03/20 15:55:52;;;;;;;1.33;1.23;;;8.30;33.20;;;;;;6278137;28;20048;-80
2021/03/20 15:58:54;;;;;;;1.75;1.48;;;8.20;34.50;;;;;;6277874;28;20053;-78
2021/03/20 16:01:55;;;;;;;1.50;1.40;;;8.10;33.90;;;;;;6277594;28;20041;-80
2021/03/20 16:04:57;;;;;;;1.88;1.40;;;7.80;34.10;;;;;;6281039;28;20076;-80
2021/03/20 16:07:58;;;;;;;1.75;1.10;;;7.50;34.20;;;;;;6288522;28;20530;-79
2021/03/20 16:11:02;;;;;;;1.63;1.15;;;7.30;34.70;;;;;;6295650;28;20044;-78